Strool, South Dakota
Current Conditions -  °F | °C
As of 7:53 PM on Sunday 23 Nov 2014 (Local Time) from KHEI Reporting Station
Overcast Overcast  
Wind Chill: -15°   Ceiling: 1600
Heat Index: -6°   Visibility: 10mi
Dew Point: -9°   Wind: 23mph
Humidity: 78%   Direction: 310°NW
Pressure: 29.71"   Gusts: 31mph
Location:  45.6029°N, 102.827°W
Report Text: KHEI 240253Z AUTO 31020G27KT 10SM OVC016 M06/M09 A2971 RMK AO2 PK WND 31027/0207 SLP091 60000 T10561089 55001
Loading
Personal Weather Stations






























Interactive Weather Map New forecast layout! Learn more

10-Day Weather Forecast

Advertisements
Track Severe Weather on mobile